Aviation Digital Data Service (ADDS)

Output produced by TAFs form (1624 UTC 23 November 2017)
found at http://www.aviationweather.gov/adds/tafs/
 
METAR text: ESSA 231620Z 14017KT 9999 -DZ SCT016 BKN062 07/06 Q0994 R01L/29//95 R01R/29//95 R08/29//95 NOSIG
Conditions at: ESSA (STOCKHOLM/ARLAND, SE) observed 1620 UTC 23 November 2017
Temperature: 7.0°C (45°F)
Dewpoint: 6.0°C (43°F) [RH = 93%]
Pressure (altimeter): 29.35 inches Hg (994.0 mb)
Winds: from the SE (140 degrees) at 20 MPH (17 knots; 8.8 m/s)
Visibility: 6 or more miles (10+ km)
Ceiling: 6200 feet AGL
Clouds: scattered clouds at 1600 feet AGL
broken clouds at 6200 feet AGL
Weather: -DZ  (light drizzle)

Forecast for: ESSA (STOCKHOLM/ARLAND, SE)
Text: TAF ESSA 231130Z 2312/2412 18012KT 9999 SCT009
Forecast period: 1200 UTC 23 November 2017 to 1200 UTC 24 November 2017
Forecast type: FROM: standard forecast or significant change
Winds: from the S (180 degrees) at 14 MPH (12 knots; 6.2 m/s)
Visibility: 6 or more miles (10+ km)
Clouds: scattered clouds at 900 feet AGL
Weather: no significant weather forecast for this period
Text: TEMPO 2320/2401 RA BKN008
Forecast period: 2000 UTC 23 November 2017 to 0100 UTC 24 November 2017
Forecast type: TEMPORARY: The following changes expected for less than half the time period
Ceiling: 800 feet AGL
Clouds: broken clouds at 800 feet AGL
Weather: RA  (rain)